sensor_id;sensor_type;location;lat;lon;timestamp;temperature;humidity
65584;DHT22;62116;43.582;1.470;2022-10-16T00:01:58;19.25;76.18
65584;DHT22;62116;43.582;1.470;2022-10-16T00:04:24;19.22;76.19
65584;DHT22;62116;43.582;1.470;2022-10-16T00:06:49;19.24;76.22
65584;DHT22;62116;43.582;1.470;2022-10-16T00:09:14;19.21;76.39
65584;DHT22;62116;43.582;1.470;2022-10-16T00:11:40;19.22;76.44
65584;DHT22;62116;43.582;1.470;2022-10-16T00:14:12;19.21;76.40
65584;DHT22;62116;43.582;1.470;2022-10-16T00:16:38;19.21;76.45
65584;DHT22;62116;43.582;1.470;2022-10-16T00:19:04;19.18;76.60
65584;DHT22;62116;43.582;1.470;2022-10-16T00:21:30;19.19;76.60
65584;DHT22;62116;43.582;1.470;2022-10-16T00:23:58;19.16;76.47
65584;DHT22;62116;43.582;1.470;2022-10-16T00:26:25;19.18;76.80
65584;DHT22;62116;43.582;1.470;2022-10-16T00:28:51;19.18;76.71
65584;DHT22;62116;43.582;1.470;2022-10-16T00:31:19;19.18;76.70
65584;DHT22;62116;43.582;1.470;2022-10-16T00:33:45;19.18;76.71
65584;DHT22;62116;43.582;1.470;2022-10-16T00:36:13;19.19;76.66
65584;DHT22;62116;43.582;1.470;2022-10-16T00:38:40;19.16;76.98
65584;DHT22;62116;43.582;1.470;2022-10-16T00:41:07;19.12;77.06
65584;DHT22;62116;43.582;1.470;2022-10-16T00:45:59;19.12;77.26
65584;DHT22;62116;43.582;1.470;2022-10-16T00:48:25;19.11;77.33
65584;DHT22;62116;43.582;1.470;2022-10-16T00:50:51;19.10;77.33
65584;DHT22;62116;43.582;1.470;2022-10-16T00:53:17;19.10;77.35
65584;DHT22;62116;43.582;1.470;2022-10-16T00:55:43;19.10;77.30
65584;DHT22;62116;43.582;1.470;2022-10-16T00:58:09;19.08;77.36
65584;DHT22;62116;43.582;1.470;2022-10-16T01:00:34;19.08;77.60
65584;DHT22;62116;43.582;1.470;2022-10-16T01:03:01;19.08;77.52
65584;DHT22;62116;43.582;1.470;2022-10-16T01:05:34;19.07;77.54
65584;DHT22;62116;43.582;1.470;2022-10-16T01:08:17;19.07;77.63
65584;DHT22;62116;43.582;1.470;2022-10-16T01:13:21;19.02;78.05
65584;DHT22;62116;43.582;1.470;2022-10-16T01:15:54;19.01;78.08
65584;DHT22;62116;43.582;1.470;2022-10-16T01:18:34;19.01;78.35
65584;DHT22;62116;43.582;1.470;2022-10-16T01:21:05;19.04;78.39
65584;DHT22;62116;43.582;1.470;2022-10-16T01:29:54;19.05;78.53
65584;DHT22;62116;43.582;1.470;2022-10-16T01:32:42;19.10;78.54
65584;DHT22;62116;43.582;1.470;2022-10-16T01:35:23;19.08;78.85
65584;DHT22;62116;43.582;1.470;2022-10-16T01:38:19;19.10;79.01
65584;DHT22;62116;43.582;1.470;2022-10-16T01:40:46;19.08;79.31
65584;DHT22;62116;43.582;1.470;2022-10-16T01:43:15;19.11;79.41
65584;DHT22;62116;43.582;1.470;2022-10-16T01:45:42;19.07;79.65
65584;DHT22;62116;43.582;1.470;2022-10-16T01:48:14;19.10;79.96
65584;DHT22;62116;43.582;1.470;2022-10-16T01:50:44;19.10;80.18
65584;DHT22;62116;43.582;1.470;2022-10-16T01:53:12;19.08;80.22
65584;DHT22;62116;43.582;1.470;2022-10-16T01:55:41;19.08;80.82
65584;DHT22;62116;43.582;1.470;2022-10-16T01:58:11;19.10;80.78
65584;DHT22;62116;43.582;1.470;2022-10-16T02:00:39;19.10;80.95
65584;DHT22;62116;43.582;1.470;2022-10-16T02:03:07;19.10;81.21
65584;DHT22;62116;43.582;1.470;2022-10-16T02:05:51;19.08;81.38
65584;DHT22;62116;43.582;1.470;2022-10-16T02:08:19;19.07;81.75
65584;DHT22;62116;43.582;1.470;2022-10-16T02:10:45;19.10;81.78
65584;DHT22;62116;43.582;1.470;2022-10-16T02:16:17;19.10;82.21
65584;DHT22;62116;43.582;1.470;2022-10-16T02:18:43;19.12;82.15
65584;DHT22;62116;43.582;1.470;2022-10-16T02:23:54;19.12;82.45
65584;DHT22;62116;43.582;1.470;2022-10-16T02:26:29;19.15;82.34
65584;DHT22;62116;43.582;1.470;2022-10-16T02:29:00;19.15;82.49
65584;DHT22;62116;43.582;1.470;2022-10-16T02:31:28;19.15;82.58
65584;DHT22;62116;43.582;1.470;2022-10-16T02:33:58;19.19;82.63
65584;DHT22;62116;43.582;1.470;2022-10-16T02:36:23;19.16;82.88
65584;DHT22;62116;43.582;1.470;2022-10-16T02:38:50;19.15;82.91
65584;DHT22;62116;43.582;1.470;2022-10-16T02:41:16;19.16;82.94
65584;DHT22;62116;43.582;1.470;2022-10-16T02:43:41;19.16;83.13
65584;DHT22;62116;43.582;1.470;2022-10-16T02:46:06;19.15;83.24
65584;DHT22;62116;43.582;1.470;2022-10-16T02:48:32;19.16;83.21
65584;DHT22;62116;43.582;1.470;2022-10-16T02:50:58;19.16;83.14
65584;DHT22;62116;43.582;1.470;2022-10-16T02:53:23;19.18;83.20
65584;DHT22;62116;43.582;1.470;2022-10-16T02:55:49;19.18;83.20
65584;DHT22;62116;43.582;1.470;2022-10-16T02:58:14;19.15;83.39
65584;DHT22;62116;43.582;1.470;2022-10-16T03:00:39;19.15;83.23
65584;DHT22;62116;43.582;1.470;2022-10-16T03:03:05;19.16;83.17
65584;DHT22;62116;43.582;1.470;2022-10-16T03:05:30;19.21;83.23
65584;DHT22;62116;43.582;1.470;2022-10-16T03:07:56;19.15;83.61
65584;DHT22;62116;43.582;1.470;2022-10-16T03:10:21;19.18;83.72
65584;DHT22;62116;43.582;1.470;2022-10-16T03:12:46;19.16;83.58
65584;DHT22;62116;43.582;1.470;2022-10-16T03:15:12;19.16;83.93
65584;DHT22;62116;43.582;1.470;2022-10-16T03:17:37;19.18;83.96
65584;DHT22;62116;43.582;1.470;2022-10-16T03:20:03;19.18;84.03
65584;DHT22;62116;43.582;1.470;2022-10-16T03:22:28;19.22;84.03
65584;DHT22;62116;43.582;1.470;2022-10-16T03:24:54;19.16;84.10
65584;DHT22;62116;43.582;1.470;2022-10-16T03:27:19;19.16;84.70
65584;DHT22;62116;43.582;1.470;2022-10-16T03:29:44;19.18;84.64
65584;DHT22;62116;43.582;1.470;2022-10-16T03:32:10;19.21;84.69
65584;DHT22;62116;43.582;1.470;2022-10-16T03:34:35;19.19;84.84
65584;DHT22;62116;43.582;1.470;2022-10-16T03:37:01;19.25;84.62
65584;DHT22;62116;43.582;1.470;2022-10-16T03:39:26;19.21;84.73
65584;DHT22;62116;43.582;1.470;2022-10-16T03:41:52;19.25;84.84
65584;DHT22;62116;43.582;1.470;2022-10-16T03:44:17;19.26;84.75
65584;DHT22;62116;43.582;1.470;2022-10-16T03:46:43;19.26;84.97
65584;DHT22;62116;43.582;1.470;2022-10-16T03:49:08;19.26;85.15
65584;DHT22;62116;43.582;1.470;2022-10-16T03:51:33;19.25;84.99
65584;DHT22;62116;43.582;1.470;2022-10-16T03:53:59;19.26;85.33
65584;DHT22;62116;43.582;1.470;2022-10-16T03:56:24;19.28;85.18
65584;DHT22;62116;43.582;1.470;2022-10-16T03:58:49;19.26;85.18
65584;DHT22;62116;43.582;1.470;2022-10-16T04:01:15;19.26;85.12
65584;DHT22;62116;43.582;1.470;2022-10-16T04:03:40;19.25;85.41
65584;DHT22;62116;43.582;1.470;2022-10-16T04:06:06;19.28;85.17
65584;DHT22;62116;43.582;1.470;2022-10-16T04:08:31;19.26;85.28
65584;DHT22;62116;43.582;1.470;2022-10-16T04:11:00;19.28;85.16
65584;DHT22;62116;43.582;1.470;2022-10-16T04:13:26;19.26;85.15
65584;DHT22;62116;43.582;1.470;2022-10-16T04:15:51;19.32;85.09
65584;DHT22;62116;43.582;1.470;2022-10-16T04:18:16;19.31;85.19
65584;DHT22;62116;43.582;1.470;2022-10-16T04:20:42;19.31;85.27
65584;DHT22;62116;43.582;1.470;2022-10-16T04:23:07;19.32;85.21
65584;DHT22;62116;43.582;1.470;2022-10-16T04:25:33;19.31;85.23
65584;DHT22;62116;43.582;1.470;2022-10-16T04:27:58;19.35;85.06
65584;DHT22;62116;43.582;1.470;2022-10-16T04:30:24;19.34;85.17
65584;DHT22;62116;43.582;1.470;2022-10-16T04:32:50;19.31;85.09
65584;DHT22;62116;43.582;1.470;2022-10-16T04:35:17;19.32;85.25
65584;DHT22;62116;43.582;1.470;2022-10-16T04:37:42;19.32;85.21
65584;DHT22;62116;43.582;1.470;2022-10-16T04:40:08;19.31;85.25
65584;DHT22;62116;43.582;1.470;2022-10-16T04:42:33;19.31;85.30
65584;DHT22;62116;43.582;1.470;2022-10-16T04:44:58;19.32;85.47
65584;DHT22;62116;43.582;1.470;2022-10-16T04:47:24;19.31;85.58
65584;DHT22;62116;43.582;1.470;2022-10-16T04:49:49;19.29;85.65
65584;DHT22;62116;43.582;1.470;2022-10-16T04:52:14;19.31;85.65
65584;DHT22;62116;43.582;1.470;2022-10-16T04:54:40;19.31;85.63
65584;DHT22;62116;43.582;1.470;2022-10-16T04:57:05;19.34;85.42
65584;DHT22;62116;43.582;1.470;2022-10-16T04:59:31;19.36;85.55
65584;DHT22;62116;43.582;1.470;2022-10-16T05:01:56;19.35;85.45
65584;DHT22;62116;43.582;1.470;2022-10-16T05:04:22;19.38;85.37
65584;DHT22;62116;43.582;1.470;2022-10-16T05:06:47;19.38;85.34
65584;DHT22;62116;43.582;1.470;2022-10-16T05:09:13;19.38;85.41
65584;DHT22;62116;43.582;1.470;2022-10-16T05:11:38;19.41;85.30
65584;DHT22;62116;43.582;1.470;2022-10-16T05:14:04;19.38;85.38
65584;DHT22;62116;43.582;1.470;2022-10-16T05:16:29;19.41;85.23
65584;DHT22;62116;43.582;1.470;2022-10-16T05:18:56;19.45;85.23
65584;DHT22;62116;43.582;1.470;2022-10-16T05:21:22;19.46;85.21
65584;DHT22;62116;43.582;1.470;2022-10-16T05:23:47;19.45;85.15
65584;DHT22;62116;43.582;1.470;2022-10-16T05:26:13;19.45;85.13
65584;DHT22;62116;43.582;1.470;2022-10-16T05:28:38;19.46;85.12
65584;DHT22;62116;43.582;1.470;2022-10-16T05:31:05;19.46;85.16
65584;DHT22;62116;43.582;1.470;2022-10-16T05:33:31;19.46;85.16
65584;DHT22;62116;43.582;1.470;2022-10-16T05:35:56;19.49;85.02
65584;DHT22;62116;43.582;1.470;2022-10-16T05:38:21;19.49;85.04
65584;DHT22;62116;43.582;1.470;2022-10-16T05:40:51;19.48;85.06
65584;DHT22;62116;43.582;1.470;2022-10-16T05:43:17;19.46;85.11
65584;DHT22;62116;43.582;1.470;2022-10-16T05:45:42;19.46;85.20
65584;DHT22;62116;43.582;1.470;2022-10-16T05:48:08;19.46;85.04
65584;DHT22;62116;43.582;1.470;2022-10-16T05:50:33;19.46;85.14
65584;DHT22;62116;43.582;1.470;2022-10-16T05:52:58;19.45;85.20
65584;DHT22;62116;43.582;1.470;2022-10-16T05:55:24;19.45;85.31
65584;DHT22;62116;43.582;1.470;2022-10-16T05:57:49;19.48;85.40
65584;DHT22;62116;43.582;1.470;2022-10-16T06:00:14;19.46;85.48
65584;DHT22;62116;43.582;1.470;2022-10-16T06:02:40;19.48;85.46
65584;DHT22;62116;43.582;1.470;2022-10-16T06:05:05;19.51;85.43
65584;DHT22;62116;43.582;1.470;2022-10-16T06:07:34;19.49;85.31
65584;DHT22;62116;43.582;1.470;2022-10-16T06:10:01;19.51;85.36
65584;DHT22;62116;43.582;1.470;2022-10-16T06:12:26;19.52;85.21
65584;DHT22;62116;43.582;1.470;2022-10-16T06:14:52;19.51;85.22
65584;DHT22;62116;43.582;1.470;2022-10-16T06:17:17;19.52;85.23
65584;DHT22;62116;43.582;1.470;2022-10-16T06:19:43;19.52;85.28
65584;DHT22;62116;43.582;1.470;2022-10-16T06:22:08;19.52;85.26
65584;DHT22;62116;43.582;1.470;2022-10-16T06:24:34;19.56;85.26
65584;DHT22;62116;43.582;1.470;2022-10-16T06:27:00;19.55;85.31
65584;DHT22;62116;43.582;1.470;2022-10-16T06:29:25;19.58;85.32
65584;DHT22;62116;43.582;1.470;2022-10-16T06:31:50;19.56;85.38
65584;DHT22;62116;43.582;1.470;2022-10-16T06:34:16;19.61;85.31
65584;DHT22;62116;43.582;1.470;2022-10-16T06:36:41;19.62;85.29
65584;DHT22;62116;43.582;1.470;2022-10-16T06:39:08;19.63;85.22
65584;DHT22;62116;43.582;1.470;2022-10-16T06:41:34;19.63;85.13
65584;DHT22;62116;43.582;1.470;2022-10-16T06:43:59;19.65;85.11
65584;DHT22;62116;43.582;1.470;2022-10-16T06:46:26;19.65;85.08
65584;DHT22;62116;43.582;1.470;2022-10-16T06:48:55;19.67;84.90
65584;DHT22;62116;43.582;1.470;2022-10-16T06:51:22;19.72;84.73
65584;DHT22;62116;43.582;1.470;2022-10-16T06:53:50;19.70;84.68
65584;DHT22;62116;43.582;1.470;2022-10-16T06:56:19;19.75;84.47
65584;DHT22;62116;43.582;1.470;2022-10-16T06:58:45;19.75;84.42
65584;DHT22;62116;43.582;1.470;2022-10-16T07:01:11;19.76;84.45
65584;DHT22;62116;43.582;1.470;2022-10-16T07:03:38;19.76;84.38
65584;DHT22;62116;43.582;1.470;2022-10-16T07:06:06;19.80;84.18
65584;DHT22;62116;43.582;1.470;2022-10-16T07:08:33;19.82;84.13
65584;DHT22;62116;43.582;1.470;2022-10-16T07:11:04;19.80;84.13
65584;DHT22;62116;43.582;1.470;2022-10-16T07:13:33;19.83;84.09
65584;DHT22;62116;43.582;1.470;2022-10-16T07:16:04;19.83;84.03
65584;DHT22;62116;43.582;1.470;2022-10-16T07:18:29;19.86;83.96
65584;DHT22;62116;43.582;1.470;2022-10-16T07:21:03;19.87;83.96
65584;DHT22;62116;43.582;1.470;2022-10-16T07:23:29;19.86;83.86
65584;DHT22;62116;43.582;1.470;2022-10-16T07:25:54;19.93;83.83
65584;DHT22;62116;43.582;1.470;2022-10-16T07:28:20;19.96;83.69
65584;DHT22;62116;43.582;1.470;2022-10-16T07:30:45;19.97;83.64
65584;DHT22;62116;43.582;1.470;2022-10-16T07:33:11;20.00;83.40
65584;DHT22;62116;43.582;1.470;2022-10-16T07:35:36;20.05;83.27
65584;DHT22;62116;43.582;1.470;2022-10-16T07:38:02;20.06;83.29
65584;DHT22;62116;43.582;1.470;2022-10-16T07:40:27;20.10;83.02
65584;DHT22;62116;43.582;1.470;2022-10-16T07:42:52;20.14;82.93
65584;DHT22;62116;43.582;1.470;2022-10-16T07:45:18;20.17;82.79
65584;DHT22;62116;43.582;1.470;2022-10-16T07:47:43;20.24;82.69
65584;DHT22;62116;43.582;1.470;2022-10-16T07:50:08;20.24;82.72
65584;DHT22;62116;43.582;1.470;2022-10-16T07:52:34;20.33;82.56
65584;DHT22;62116;43.582;1.470;2022-10-16T07:54:59;20.36;82.40
65584;DHT22;62116;43.582;1.470;2022-10-16T07:57:25;20.43;82.42
65584;DHT22;62116;43.582;1.470;2022-10-16T07:59:50;20.50;82.25
65584;DHT22;62116;43.582;1.470;2022-10-16T08:02:16;20.58;82.09
65584;DHT22;62116;43.582;1.470;2022-10-16T08:04:41;20.67;81.83
65584;DHT22;62116;43.582;1.470;2022-10-16T08:07:07;20.75;81.56
65584;DHT22;62116;43.582;1.470;2022-10-16T08:09:33;20.85;81.34
65584;DHT22;62116;43.582;1.470;2022-10-16T08:11:59;20.94;81.01
65584;DHT22;62116;43.582;1.470;2022-10-16T08:14:24;21.02;80.74
65584;DHT22;62116;43.582;1.470;2022-10-16T08:16:49;21.09;80.57
65584;DHT22;62116;43.582;1.470;2022-10-16T08:19:15;21.14;80.35
65584;DHT22;62116;43.582;1.470;2022-10-16T08:21:41;21.25;80.01
65584;DHT22;62116;43.582;1.470;2022-10-16T08:24:06;21.28;79.85
65584;DHT22;62116;43.582;1.470;2022-10-16T08:26:31;21.32;79.26
65584;DHT22;62116;43.582;1.470;2022-10-16T08:28:57;21.34;79.20
65584;DHT22;62116;43.582;1.470;2022-10-16T08:31:22;21.41;79.23
65584;DHT22;62116;43.582;1.470;2022-10-16T08:33:48;21.48;78.93
65584;DHT22;62116;43.582;1.470;2022-10-16T08:36:16;21.59;78.64
65584;DHT22;62116;43.582;1.470;2022-10-16T08:38:41;21.75;78.33
65584;DHT22;62116;43.582;1.470;2022-10-16T08:46:54;22.04;76.83
65584;DHT22;62116;43.582;1.470;2022-10-16T08:49:21;22.17;76.54
65584;DHT22;62116;43.582;1.470;2022-10-16T08:51:49;22.33;75.86
65584;DHT22;62116;43.582;1.470;2022-10-16T08:54:37;22.51;75.21
65584;DHT22;62116;43.582;1.470;2022-10-16T08:59:39;22.85;74.07
65584;DHT22;62116;43.582;1.470;2022-10-16T09:02:23;22.99;72.88
65584;DHT22;62116;43.582;1.470;2022-10-16T09:08:28;23.46;71.55
65584;DHT22;62116;43.582;1.470;2022-10-16T09:11:08;23.59;71.38
65584;DHT22;62116;43.582;1.470;2022-10-16T09:21:42;24.33;67.94
65584;DHT22;62116;43.582;1.470;2022-10-16T09:24:14;24.53;68.08
65584;DHT22;62116;43.582;1.470;2022-10-16T09:26:41;24.65;66.77
65584;DHT22;62116;43.582;1.470;2022-10-16T09:29:08;24.82;66.20
65584;DHT22;62116;43.582;1.470;2022-10-16T09:31:36;24.91;65.55
65584;DHT22;62116;43.582;1.470;2022-10-16T09:34:03;25.07;65.18
65584;DHT22;62116;43.582;1.470;2022-10-16T09:36:39;25.28;64.62
65584;DHT22;62116;43.582;1.470;2022-10-16T09:39:08;25.42;64.55
65584;DHT22;62116;43.582;1.470;2022-10-16T09:41:36;25.52;63.42
65584;DHT22;62116;43.582;1.470;2022-10-16T09:44:03;25.63;63.15
65584;DHT22;62116;43.582;1.470;2022-10-16T09:51:43;25.73;61.97
65584;DHT22;62116;43.582;1.470;2022-10-16T09:56:35;25.58;62.55
65584;DHT22;62116;43.582;1.470;2022-10-16T09:59:18;25.56;62.66
65584;DHT22;62116;43.582;1.470;2022-10-16T10:01:52;25.59;62.93
65584;DHT22;62116;43.582;1.470;2022-10-16T10:04:19;25.63;63.19
65584;DHT22;62116;43.582;1.470;2022-10-16T10:06:55;25.65;62.74
65584;DHT22;62116;43.582;1.470;2022-10-16T10:09:27;25.61;62.71
65584;DHT22;62116;43.582;1.470;2022-10-16T10:11:56;25.52;62.44
65584;DHT22;62116;43.582;1.470;2022-10-16T10:19:47;25.35;62.87
65584;DHT22;62116;43.582;1.470;2022-10-16T10:22:25;25.31;62.87
65584;DHT22;62116;43.582;1.470;2022-10-16T10:25:15;25.25;63.11
65584;DHT22;62116;43.582;1.470;2022-10-16T10:38:52;25.25;62.99
65584;DHT22;62116;43.582;1.470;2022-10-16T10:50:34;25.11;63.18
65584;DHT22;62116;43.582;1.470;2022-10-16T10:53:11;25.14;62.94
65584;DHT22;62116;43.582;1.470;2022-10-16T11:01:13;25.07;62.79
65584;DHT22;62116;43.582;1.470;2022-10-16T11:06:40;25.09;62.66
65584;DHT22;62116;43.582;1.470;2022-10-16T11:11:47;25.04;61.99
65584;DHT22;62116;43.582;1.470;2022-10-16T11:14:37;25.01;62.73
65584;DHT22;62116;43.582;1.470;2022-10-16T11:17:08;25.01;62.33
65584;DHT22;62116;43.582;1.470;2022-10-16T11:19:48;24.99;62.99
65584;DHT22;62116;43.582;1.470;2022-10-16T11:27:40;24.92;62.86
65584;DHT22;62116;43.582;1.470;2022-10-16T11:30:16;24.88;62.84
65584;DHT22;62116;43.582;1.470;2022-10-16T11:33:00;24.87;62.91
65584;DHT22;62116;43.582;1.470;2022-10-16T11:38:03;24.89;61.96
65584;DHT22;62116;43.582;1.470;2022-10-16T11:40:38;24.91;62.23
65584;DHT22;62116;43.582;1.470;2022-10-16T11:43:15;24.88;61.87
65584;DHT22;62116;43.582;1.470;2022-10-16T11:45:47;24.87;61.29
65584;DHT22;62116;43.582;1.470;2022-10-16T11:55:47;24.78;61.74
65584;DHT22;62116;43.582;1.470;2022-10-16T12:01:42;24.68;60.92
65584;DHT22;62116;43.582;1.470;2022-10-16T12:06:36;24.69;61.41
65584;DHT22;62116;43.582;1.470;2022-10-16T12:09:03;24.69;61.33
65584;DHT22;62116;43.582;1.470;2022-10-16T12:16:54;24.74;61.84
65584;DHT22;62116;43.582;1.470;2022-10-16T12:19:22;24.72;61.81
65584;DHT22;62116;43.582;1.470;2022-10-16T12:21:47;24.71;60.93
65584;DHT22;62116;43.582;1.470;2022-10-16T12:24:36;24.72;60.15
65584;DHT22;62116;43.582;1.470;2022-10-16T12:27:04;24.68;60.21
65584;DHT22;62116;43.582;1.470;2022-10-16T12:29:41;24.69;60.72
65584;DHT22;62116;43.582;1.470;2022-10-16T12:32:29;24.67;59.67
65584;DHT22;62116;43.582;1.470;2022-10-16T12:34:55;24.71;59.77
65584;DHT22;62116;43.582;1.470;2022-10-16T12:37:24;24.69;59.83
65584;DHT22;62116;43.582;1.470;2022-10-16T12:39:51;24.69;59.03
65584;DHT22;62116;43.582;1.470;2022-10-16T12:42:38;24.69;59.26
65584;DHT22;62116;43.582;1.470;2022-10-16T12:47:51;24.72;58.63
65584;DHT22;62116;43.582;1.470;2022-10-16T12:50:37;24.72;58.96
65584;DHT22;62116;43.582;1.470;2022-10-16T12:53:17;24.71;58.90
65584;DHT22;62116;43.582;1.470;2022-10-16T12:56:33;24.69;58.96
65584;DHT22;62116;43.582;1.470;2022-10-16T13:12:50;24.54;61.32
65584;DHT22;62116;43.582;1.470;2022-10-16T13:18:22;24.48;61.32
65584;DHT22;62116;43.582;1.470;2022-10-16T13:29:10;24.48;61.03
65584;DHT22;62116;43.582;1.470;2022-10-16T13:31:38;24.48;61.07
65584;DHT22;62116;43.582;1.470;2022-10-16T13:34:05;24.53;61.30
65584;DHT22;62116;43.582;1.470;2022-10-16T13:36:46;24.53;61.43
65584;DHT22;62116;43.582;1.470;2022-10-16T13:39:13;24.51;61.40
65584;DHT22;62116;43.582;1.470;2022-10-16T13:41:39;24.54;61.47
65584;DHT22;62116;43.582;1.470;2022-10-16T13:44:05;24.50;61.33
65584;DHT22;62116;43.582;1.470;2022-10-16T13:46:38;24.51;61.57
65584;DHT22;62116;43.582;1.470;2022-10-16T13:49:05;24.51;61.84
65584;DHT22;62116;43.582;1.470;2022-10-16T13:51:31;24.56;62.04
65584;DHT22;62116;43.582;1.470;2022-10-16T13:53:58;24.60;61.75
65584;DHT22;62116;43.582;1.470;2022-10-16T13:56:29;24.63;60.83
65584;DHT22;62116;43.582;1.470;2022-10-16T13:59:02;24.65;60.76
65584;DHT22;62116;43.582;1.470;2022-10-16T14:01:33;24.64;60.70
65584;DHT22;62116;43.582;1.470;2022-10-16T14:04:04;24.63;61.43
65584;DHT22;62116;43.582;1.470;2022-10-16T14:06:31;24.65;61.98
65584;DHT22;62116;43.582;1.470;2022-10-16T14:09:29;24.63;62.40
65584;DHT22;62116;43.582;1.470;2022-10-16T14:12:02;24.63;62.29
65584;DHT22;62116;43.582;1.470;2022-10-16T14:14:34;24.61;62.39
65584;DHT22;62116;43.582;1.470;2022-10-16T14:17:02;24.61;62.53
65584;DHT22;62116;43.582;1.470;2022-10-16T14:19:29;24.63;62.54
65584;DHT22;62116;43.582;1.470;2022-10-16T14:21:55;24.60;62.55
65584;DHT22;62116;43.582;1.470;2022-10-16T14:24:33;24.61;62.34
65584;DHT22;62116;43.582;1.470;2022-10-16T14:27:00;24.60;62.85
65584;DHT22;62116;43.582;1.470;2022-10-16T14:29:27;24.56;63.40
65584;DHT22;62116;43.582;1.470;2022-10-16T14:32:04;24.57;63.48
65584;DHT22;62116;43.582;1.470;2022-10-16T14:34:35;24.58;63.42
65584;DHT22;62116;43.582;1.470;2022-10-16T14:37:15;24.56;63.43
65584;DHT22;62116;43.582;1.470;2022-10-16T14:39:49;24.54;63.65
65584;DHT22;62116;43.582;1.470;2022-10-16T14:42:16;24.54;64.00
65584;DHT22;62116;43.582;1.470;2022-10-16T14:44:44;24.48;63.81
65584;DHT22;62116;43.582;1.470;2022-10-16T14:47:13;24.47;63.16
65584;DHT22;62116;43.582;1.470;2022-10-16T14:49:41;24.41;63.04
65584;DHT22;62116;43.582;1.470;2022-10-16T14:52:11;24.34;63.17
65584;DHT22;62116;43.582;1.470;2022-10-16T14:54:37;24.31;63.48
65584;DHT22;62116;43.582;1.470;2022-10-16T14:57:03;24.27;64.04
65584;DHT22;62116;43.582;1.470;2022-10-16T14:59:40;24.24;63.73
65584;DHT22;62116;43.582;1.470;2022-10-16T15:04:51;24.13;63.77
65584;DHT22;62116;43.582;1.470;2022-10-16T15:07:16;24.16;63.87
65584;DHT22;62116;43.582;1.470;2022-10-16T15:09:42;24.14;63.95
65584;DHT22;62116;43.582;1.470;2022-10-16T15:12:07;24.13;64.04
65584;DHT22;62116;43.582;1.470;2022-10-16T15:14:33;24.13;64.18
65584;DHT22;62116;43.582;1.470;2022-10-16T15:16:58;24.13;63.94
65584;DHT22;62116;43.582;1.470;2022-10-16T15:19:24;24.13;64.25
65584;DHT22;62116;43.582;1.470;2022-10-16T15:21:49;24.13;64.54
65584;DHT22;62116;43.582;1.470;2022-10-16T15:24:15;24.10;64.78
65584;DHT22;62116;43.582;1.470;2022-10-16T15:26:40;24.13;64.90
65584;DHT22;62116;43.582;1.470;2022-10-16T15:29:06;24.13;65.02
65584;DHT22;62116;43.582;1.470;2022-10-16T15:31:32;24.14;65.27
65584;DHT22;62116;43.582;1.470;2022-10-16T15:33:57;24.12;65.66
65584;DHT22;62116;43.582;1.470;2022-10-16T15:36:34;24.14;65.91
65584;DHT22;62116;43.582;1.470;2022-10-16T15:39:02;24.16;66.00
65584;DHT22;62116;43.582;1.470;2022-10-16T15:41:28;24.18;66.02
65584;DHT22;62116;43.582;1.470;2022-10-16T15:43:53;24.20;65.69
65584;DHT22;62116;43.582;1.470;2022-10-16T15:46:21;24.20;65.74
65584;DHT22;62116;43.582;1.470;2022-10-16T15:48:48;24.20;65.88
65584;DHT22;62116;43.582;1.470;2022-10-16T15:51:13;24.21;65.91
65584;DHT22;62116;43.582;1.470;2022-10-16T15:53:39;24.24;65.93
65584;DHT22;62116;43.582;1.470;2022-10-16T15:56:06;24.20;66.25
65584;DHT22;62116;43.582;1.470;2022-10-16T15:58:32;24.17;66.22
65584;DHT22;62116;43.582;1.470;2022-10-16T16:00:59;24.17;66.34
65584;DHT22;62116;43.582;1.470;2022-10-16T16:03:27;24.14;66.62
65584;DHT22;62116;43.582;1.470;2022-10-16T16:05:53;24.14;66.76
65584;DHT22;62116;43.582;1.470;2022-10-16T16:08:18;24.10;66.80
65584;DHT22;62116;43.582;1.470;2022-10-16T16:10:44;24.07;67.01
65584;DHT22;62116;43.582;1.470;2022-10-16T16:13:09;23.99;67.34
65584;DHT22;62116;43.582;1.470;2022-10-16T16:15:39;23.96;67.46
65584;DHT22;62116;43.582;1.470;2022-10-16T16:18:04;23.94;67.48
65584;DHT22;62116;43.582;1.470;2022-10-16T16:20:31;23.89;67.72
65584;DHT22;62116;43.582;1.470;2022-10-16T16:22:56;23.90;67.77
65584;DHT22;62116;43.582;1.470;2022-10-16T16:25:22;23.87;68.01
65584;DHT22;62116;43.582;1.470;2022-10-16T16:27:47;23.80;68.03
65584;DHT22;62116;43.582;1.470;2022-10-16T16:30:13;23.80;68.16
65584;DHT22;62116;43.582;1.470;2022-10-16T16:32:38;23.76;68.39
65584;DHT22;62116;43.582;1.470;2022-10-16T16:35:04;23.73;68.56
65584;DHT22;62116;43.582;1.470;2022-10-16T16:37:30;23.69;68.82
65584;DHT22;62116;43.582;1.470;2022-10-16T16:39:56;23.65;69.03
65584;DHT22;62116;43.582;1.470;2022-10-16T16:42:25;23.62;69.33
65584;DHT22;62116;43.582;1.470;2022-10-16T16:44:50;23.53;69.62
65584;DHT22;62116;43.582;1.470;2022-10-16T16:47:16;23.50;69.81
65584;DHT22;62116;43.582;1.470;2022-10-16T16:49:41;23.45;70.03
65584;DHT22;62116;43.582;1.470;2022-10-16T16:52:07;23.41;70.26
65584;DHT22;62116;43.582;1.470;2022-10-16T16:54:32;23.39;70.51
65584;DHT22;62116;43.582;1.470;2022-10-16T16:56:58;23.33;70.76
65584;DHT22;62116;43.582;1.470;2022-10-16T16:59:23;23.28;70.89
65584;DHT22;62116;43.582;1.470;2022-10-16T17:01:49;23.22;71.12
65584;DHT22;62116;43.582;1.470;2022-10-16T17:04:15;23.16;71.37
65584;DHT22;62116;43.582;1.470;2022-10-16T17:06:41;23.18;71.67
65584;DHT22;62116;43.582;1.470;2022-10-16T17:09:07;23.15;71.99
65584;DHT22;62116;43.582;1.470;2022-10-16T17:11:33;23.14;72.74
65584;DHT22;62116;43.582;1.470;2022-10-16T17:13:59;23.11;72.98
65584;DHT22;62116;43.582;1.470;2022-10-16T17:16:28;23.04;73.53
65584;DHT22;62116;43.582;1.470;2022-10-16T17:18:54;22.99;73.16
65584;DHT22;62116;43.582;1.470;2022-10-16T17:21:19;22.87;73.97
65584;DHT22;62116;43.582;1.470;2022-10-16T17:23:45;22.84;73.85
65584;DHT22;62116;43.582;1.470;2022-10-16T17:26:13;22.77;74.14
65584;DHT22;62116;43.582;1.470;2022-10-16T17:28:39;22.71;74.48
65584;DHT22;62116;43.582;1.470;2022-10-16T17:31:17;22.67;75.03
65584;DHT22;62116;43.582;1.470;2022-10-16T17:33:43;22.60;74.89
65584;DHT22;62116;43.582;1.470;2022-10-16T17:36:09;22.57;74.71
65584;DHT22;62116;43.582;1.470;2022-10-16T17:38:36;22.53;75.40
65584;DHT22;62116;43.582;1.470;2022-10-16T17:41:15;22.47;75.55
65584;DHT22;62116;43.582;1.470;2022-10-16T17:43:41;22.44;75.53
65584;DHT22;62116;43.582;1.470;2022-10-16T17:46:08;22.41;75.75
65584;DHT22;62116;43.582;1.470;2022-10-16T17:48:37;22.37;76.04
65584;DHT22;62116;43.582;1.470;2022-10-16T17:51:08;22.39;76.02
65584;DHT22;62116;43.582;1.470;2022-10-16T17:53:35;22.33;76.18
65584;DHT22;62116;43.582;1.470;2022-10-16T17:56:05;22.29;76.10